CheckWX is a tool to help pilots better visualize weather data.  It is not intended as a substitute for an official pre-flight weather briefing.

16:04:31 UTC

KELK METAR
Elk City Regional Business Airport
Elk City, Oklahoma, USA
Current

30 mins ago

KELK 291535Z AUTO 00000KT 10SM CLR 25/13 A3024 RMK AO2 T02450133 TSNO
Observed
May-29 @ 15:35 UTC
Visibility
Flight Rules
VFR
Cloud Levels
  • Clear skies
Temperature
24°C / 75°F
Dewpoint
13°C / 55°F
Humidity
50%
Altimeter
30.24" Hg
Pressure
1024.02 hPa
Previous

50 mins ago

KELK 291515Z AUTO 00000KT 10SM CLR 24/14 A3025 RMK AO2 T02400140 TSNO
Observed
May-29 @ 15:15 UTC
Visibility
Flight Rules
VFR
Cloud Levels
  • Clear skies
Temperature
24°C / 75°F
Dewpoint
14°C / 57°F
Humidity
54%
Altimeter
30.25" Hg
Pressure
1024.42 hPa
Previous

1 hour ago

KELK 291455Z AUTO 09003KT 10SM CLR 24/15 A3025 RMK AO2 T02390145 TSNO
Observed
May-29 @ 14:55 UTC
Wind
  • 090° at 3 KTS
Visibility
Flight Rules
VFR
Cloud Levels
  • Clear skies
Temperature
24°C / 75°F
Dewpoint
14°C / 57°F
Humidity
54%
Altimeter
30.25" Hg
Pressure
1024.42 hPa